Blowing Sand Mountains, Nevada Weather observations

Data are for observation ending at time listed.
 Day   Time    Ave.   Ave.  Ave.  Vector   Max.   Stn.    Total    Solar   Ave.  
  of    of     Air    Rel.  Wind   Wind    Wind   Baro.  Precip.   Rad.    Soil  
Year   Day     Temp.  Hum.  Speed  Dir.    Gust   Pres.                    Temp. 
2014   (PST)    F      %     mph   deg.    mph     mb.     in.     W/m2     F   
------------------------------------------------------------------------------
 350   10:30   46.2    44    6.9   158     11.0    879.1     0.00     422     42.6
 350   10:40   47.2    43    8.2   150     11.8    878.9     0.00     433     42.6
 350   10:50   47.4    42    8.9   156     12.3    878.7     0.00     422     42.6
 350   11:00   47.6    42    9.5   155     15.7    878.5     0.00     404     42.6
 350   11:10   47.7    41   10.2   150     14.8    878.4     0.00     441     42.6
 350   11:20   48.1    40    9.8   154     14.9    878.3     0.00     457     42.6
 350   11:30   48.3    40    9.0   139     13.1    878.2     0.00     459     42.6
 350   11:40   48.8    39    8.6   150     11.8    878.1     0.00     451     42.6
 350   11:50   48.9    39    9.0   135     13.1    877.9     0.00     436     42.6
 350   12:00   49.4    38    8.3   157     14.5    877.7     0.00     465     42.6
 350   12:10   50.0    37    7.7   165     11.8    877.6     0.00     466     42.6
 350   12:20   49.9    36    8.8   149     13.1    877.5     0.00     468     42.6
 350   12:30   50.3    36    9.3   154     13.8    877.4     0.00     463     42.6
 350   12:40   50.8    35   10.0   167     15.5    877.3     0.00     458     42.6
 350   12:50   50.8    35   10.1   154     14.8    877.2     0.00     451     42.6
 350   13:00   50.8    35   11.1   157     17.0    877.0     0.00     445     42.6
 350   13:10   50.8    34   10.1   138     15.3    876.9     0.00     432     42.6
 350   13:20   51.2    34   10.2   148     16.0    876.8     0.00     421     42.7
 350   13:30   51.2    33   10.6   138     15.6    876.8     0.00     410     42.7
 350   13:40   51.0    33    9.5   130     14.2    876.7     0.00     399     42.7
 350   13:50   51.4    33    8.3   152     13.0    876.7     0.00     239     42.7
 350   14:00   50.8    34    8.6   138     15.0    876.5     0.00     241     42.7
 350   14:10   50.7    34    8.1   131     11.8    876.5     0.00     239     42.8
 350   14:20   52.0    32    8.9   150     13.4    876.5     0.00     326     42.8
 350   14:30   52.0    32    8.4   143     13.3    876.4     0.00     288     42.8
 350   14:40   51.9    32   10.3   127     16.4    876.2     0.00     253     42.9
 350   14:50   51.6    32   11.8   128     18.8    876.2     0.00     271     42.9
 350   15:00   51.5    32   11.8   133     19.3    876.3     0.00     255     42.9
 350   15:10   51.2    32   12.5   121     19.6    876.4     0.00     229     43.0
 350   15:20   50.4    33   14.2   117     20.2    876.3     0.00     188     43.0
 350   15:30   49.7    34   14.3   124     20.5    876.2     0.00     162     43.0
 350   15:40   49.0    35   14.5   120     20.8    876.1     0.00     137     43.1
 350   15:50   48.8    35   14.6   120     21.8    876.2     0.00     106     43.2
 350   16:00   48.3    36   12.6   123     18.0    876.3     0.00      72     43.2
 350   16:10   47.7    37   13.4   124     19.1    876.3     0.00      36     43.2
 350   16:20   46.7    39   12.6   120     18.0    876.3     0.00      11     43.3
 350   16:30   46.0    40   11.0   123     17.1    876.3     0.00       6     43.3
 350   16:40   45.3    42   12.0   126     19.1    876.4     0.00       3     43.3
 350   16:50   44.6    42   11.8   128     18.3    876.4     0.00       1     43.4
 350   17:00   44.1    43   11.6   131     17.6    876.4     0.00       0     43.4
 350   17:10   43.6    44   12.0   134     17.4    876.4     0.00       0     43.5
 350   17:20   43.0    46   11.8   137     15.9    876.5     0.00       0     43.5
 350   17:30   42.9    47   13.1   128     17.6    876.6     0.00       0     43.5
 350   17:40   42.6    48   12.1   122     17.9    876.6     0.00       0     43.6
 350   17:50   42.2    48   10.7   124     17.6    876.6     0.00       0     43.6
 350   18:00   41.9    48   11.1   126     17.5    876.6     0.00       0     43.6
 350   18:10   41.9    48   10.7   128     15.7    876.7     0.00       0     43.6
 350   18:20   41.6    49    7.6   158     14.5    876.9     0.00       0     43.7
 350   18:30   39.8    52    3.7   189      5.9    877.2     0.00       0     43.7
 350   18:40   38.8    54    3.1   139      7.7    877.3     0.00       0     43.8
 350   18:50   38.8    54    3.3   104      6.5    877.3     0.00       0     43.8
 350   19:00   39.2    54    4.4   120      8.0    877.4     0.00       0     43.8
 350   19:10   39.0    54    4.1   110      8.4    877.3     0.00       0     43.8
 350   19:20   38.7    54    3.8   122      8.0    877.4     0.00       0     43.8
 350   19:30   38.3    55    1.9   130      6.1    877.4     0.00       0     43.9
 350   19:40   37.5    56    1.6   167      3.9    877.4     0.00       0     43.9
 350   19:50   36.7    58    2.6   181      4.7    877.5     0.00       0     43.9
 350   20:00   36.4    58    1.3   155      3.4    877.5     0.00       0     43.9
 350   20:10   36.4    59    1.2   117      3.8    877.5     0.00       0     44.0
 350   20:20   37.1    57    2.9   124      4.9    877.6     0.00       0     44.0
 350   20:30   37.4    57    2.2   107      4.8    877.6     0.00       0     44.0
 350   20:40   37.8    56    0.9   140      3.4    877.5     0.00       0     44.0
 350   20:50   36.9    57    3.0   180      6.2    877.5     0.00       0     44.0
 350   21:00   37.7    56    8.3   124     12.4    877.4     0.00       0     44.0
 350   21:10   38.9    54    8.9   124     12.9    877.4     0.00       0     44.0
 350   21:20   38.9    54    8.0   120     11.8    877.5     0.00       0     44.0
 350   21:30   38.4    55    7.9   138     11.0    877.5     0.00       0     44.0
 350   21:40   38.2    56    7.4   139     11.2    877.5     0.00       0     44.0
 350   21:50   38.7    55    8.8   135     15.3    877.5     0.00       0     44.0
 350   22:00   39.2    53    9.2   138     13.4    877.6     0.00       0     44.0
 350   22:10   39.0    54    8.1   142     12.7    877.7     0.00       0     44.0
 350   22:20   38.4    55    6.1   139      9.1    877.8     0.00       0     44.0
 350   22:30   37.4    56    4.4   166      6.6    877.9     0.00       0     43.9
 350   22:40   37.1    58    6.6   145     10.2    877.9     0.00       0     43.9
 350   22:50   36.9    58    5.3   146      6.9    877.9     0.00       0     43.9
 350   23:00   36.2    59    4.4   132      6.4    877.9     0.00       0     43.9
 350   23:10   35.5    61    4.1   132      6.6    877.9     0.00       0     43.9
 350   23:20   35.3    62    5.6   151     11.0    877.8     0.00       0     43.9
 350   23:30   36.7    61    9.0   140     13.8    877.6     0.00       0     43.9
 350   23:40   37.5    60   11.6   143     16.3    877.5     0.00       0     43.9
 350   23:50   37.9    59   12.1   148     16.2    877.4     0.00       0     43.8
 351    0:00   38.2    58   10.5   146     15.2    877.4     0.00       0     43.8
 351    0:10   37.6    58    9.2   147     11.9    877.3     0.00       0     43.8
 351    0:20   37.4    59    9.5   150     12.6    877.2     0.00       0     43.7
 351    0:30   38.1    58    9.1   150     12.7    877.1     0.00       0     43.7
 351    0:40   38.2    59    7.0   146     10.8    877.1     0.00       0     43.7
 351    0:50   38.5    58    7.6   143     10.9    877.1     0.00       0     43.7
 351    1:00   38.5    59    5.5   148      9.2    877.1     0.00       0     43.7
 351    1:10   38.2    60    6.9   166      9.6    877.1     0.00       0     43.7
 351    1:20   38.1    60    7.1   163      9.9    877.1     0.00       0     43.6
 351    1:30   37.9    59    6.6   165     10.4    877.1     0.00       0     43.6
 351    1:40   37.7    58    5.6   170      8.6    877.2     0.00       0     43.6
 351    1:50   37.2    58    4.2   176      7.3    877.3     0.00       0     43.6
 351    2:00   36.9    60    3.6   163      5.1    877.3     0.00       0     43.5
 351    2:10   36.7    60    4.0   170      5.0    877.4     0.00       0     43.5
 351    2:20   36.8    61    4.8   164      6.1    877.3     0.00       0     43.5
 351    2:30   36.7    62    5.1   181      6.7    877.3     0.00       0     43.4
 351    2:40   36.9    62    4.3   174      6.1    877.3     0.00       0     43.4
 351    2:50   36.7    62    2.2   172      3.6    877.3     0.00       0     43.4
 351    3:00   36.2    62    0.9    94      1.8    877.2     0.00       0     43.4
 351    3:10   36.0    62    0.2   126      1.2    877.2     0.00       0     43.4
 351    3:20   36.1    63    1.0    39      2.6    877.2     0.00       0     43.3
 351    3:30   36.7    62    0.4    51      1.4    877.2     0.00       0     43.3
 351    3:40   36.7    63    1.7   178      3.9    877.2     0.00       0     43.3
 351    3:50   37.1    63    2.1   219      3.2    877.3     0.00       0     43.3
 351    4:00   37.3    63    2.5   202      3.4    877.2     0.00       0     43.3
 351    4:10   37.1    64    1.9   154      5.1    877.2     0.00       0     43.2
 351    4:20   37.5    64    3.2   181      4.9    877.3     0.00       0     43.2
 351    4:30   37.0    64    3.5   181      4.2    877.3     0.00       0     43.2
 351    4:40   37.4    64    3.2   142      5.3    877.3     0.00       0     43.2
 351    4:50   37.5    64    3.5   125      5.6    877.3     0.00       0     43.1
 351    5:00   36.7    65    2.6   137      3.4    877.3     0.00       0     43.1
 351    5:10   36.2    66    2.8   151      3.4    877.4     0.00       0     43.1
 351    5:20   36.1    66    3.4   162      4.2    877.5     0.00       0     43.1
 351    5:30   36.1    66    2.5   183      3.2    877.6     0.00       0     43.1
 351    5:40   35.9    66    2.8   174      3.8    877.7     0.00       0     43.1
 351    5:50   36.0    66    3.9   178      5.3    877.8     0.00       0     43.0
 351    6:00   36.8    65    4.5   166      7.2    877.9     0.00       0     43.0
 351    6:10   37.4    63    3.9   163      5.6    877.9     0.00       0     43.0
 351    6:20   37.6    63    4.1   153      6.1    878.0     0.00       0     43.0
 351    6:30   37.7    63    3.0   191      5.9    878.1     0.00       0     42.9
 351    6:40   37.4    63    2.3   206      3.1    878.2     0.00       0     42.9
 351    6:50   36.8    64    3.3   178      4.7    878.3     0.00       0     42.9
 351    7:00   36.9    64    4.2   163      6.2    878.3     0.00       0     42.9
 351    7:10   37.3    64    5.4   151      7.2    878.2     0.00       1     42.9
 351    7:20   37.6    64    5.6   157      7.5    878.2     0.00       3     42.9
 351    7:30   37.4    64    4.4   164      5.8    878.3     0.00       7     42.9
 351    7:40   37.3    64    4.9   178      6.4    878.4     0.00      15     42.8
 351    7:50   37.6    63    4.9   185      7.0    878.6     0.00      27     42.8
 351    8:00   38.0    63    4.8   175      6.7    878.6     0.00      42     42.8
 351    8:10   38.4    63    4.7   173      6.9    878.7     0.00      53     42.8
 351    8:20   38.8    62    5.0   175      6.7    878.8     0.00      63     42.8
 351    8:30   39.1    61    5.0   175      6.3    878.9     0.00      73     42.8
 351    8:40   39.8    60    5.6   180      7.1    878.9     0.00     139     42.8
 351    8:50   41.1    58    5.5   178      6.9    879.0     0.00     178     42.7
 351    9:00   42.8    55    5.3   174      6.8    879.1     0.00     246     42.7
 351    9:10   44.0    52    5.0   173      6.9    879.2     0.00     280     42.7
 351    9:20   45.0    51    5.1   165      7.3    879.2     0.00     341     42.7
 351    9:30   44.9    51    6.3   152      9.3    879.3     0.00     264     42.7
 351    9:40   44.0    52    6.3   155      9.2    879.3     0.00     169     42.7
 351    9:50   44.2    51    4.8   151      7.3    879.4     0.00     210     42.7
 351   10:00   45.6    49    3.6   146      5.6    879.5     0.00     308     42.7
 351   10:10   47.0    46    4.8   150      8.1    879.4     0.00     381     42.7
 351   10:20   47.7    45    5.1   155      8.0    879.4     0.00     396     42.6

Return to Blowing Sand Mountains graphs page.


Western Regional Climate Center,wrcc@dri.edu